sensor_id;sensor_type;location;lat;lon;timestamp;P1;durP1;ratioP1;P2;durP2;ratioP2
8230;SDS011;4156;50.908;6.974;2022-10-31T00:00:21;8.50;;;4.93;;
8230;SDS011;4156;50.908;6.974;2022-10-31T00:02:46;11.27;;;5.13;;
8230;SDS011;4156;50.908;6.974;2022-10-31T00:05:12;6.97;;;4.37;;
8230;SDS011;4156;50.908;6.974;2022-10-31T00:07:37;7.03;;;4.80;;
8230;SDS011;4156;50.908;6.974;2022-10-31T00:10:03;8.10;;;5.90;;
8230;SDS011;4156;50.908;6.974;2022-10-31T00:12:29;9.67;;;5.33;;
8230;SDS011;4156;50.908;6.974;2022-10-31T00:14:54;9.00;;;5.37;;
8230;SDS011;4156;50.908;6.974;2022-10-31T00:17:20;9.60;;;5.13;;
8230;SDS011;4156;50.908;6.974;2022-10-31T00:19:45;9.47;;;5.70;;
8230;SDS011;4156;50.908;6.974;2022-10-31T00:22:11;6.97;;;4.87;;
8230;SDS011;4156;50.908;6.974;2022-10-31T00:24:36;9.10;;;4.97;;
8230;SDS011;4156;50.908;6.974;2022-10-31T00:27:02;6.77;;;4.90;;
8230;SDS011;4156;50.908;6.974;2022-10-31T00:29:27;11.00;;;5.60;;
8230;SDS011;4156;50.908;6.974;2022-10-31T00:31:53;10.07;;;4.97;;
8230;SDS011;4156;50.908;6.974;2022-10-31T00:34:18;11.87;;;5.50;;
8230;SDS011;4156;50.908;6.974;2022-10-31T00:36:44;10.87;;;5.67;;
8230;SDS011;4156;50.908;6.974;2022-10-31T00:39:10;11.80;;;6.17;;
8230;SDS011;4156;50.908;6.974;2022-10-31T00:41:35;8.77;;;5.03;;
8230;SDS011;4156;50.908;6.974;2022-10-31T00:44:01;9.80;;;5.67;;
8230;SDS011;4156;50.908;6.974;2022-10-31T00:46:26;10.80;;;4.63;;
8230;SDS011;4156;50.908;6.974;2022-10-31T00:48:52;8.17;;;5.30;;
8230;SDS011;4156;50.908;6.974;2022-10-31T00:51:17;7.50;;;5.43;;
8230;SDS011;4156;50.908;6.974;2022-10-31T00:53:43;8.60;;;5.37;;
8230;SDS011;4156;50.908;6.974;2022-10-31T00:56:08;10.93;;;4.87;;
8230;SDS011;4156;50.908;6.974;2022-10-31T00:58:34;9.67;;;4.50;;
8230;SDS011;4156;50.908;6.974;2022-10-31T01:00:59;8.97;;;5.00;;
8230;SDS011;4156;50.908;6.974;2022-10-31T01:03:29;10.97;;;5.10;;
8230;SDS011;4156;50.908;6.974;2022-10-31T01:05:59;9.73;;;4.93;;
8230;SDS011;4156;50.908;6.974;2022-10-31T01:08:27;8.23;;;4.47;;
8230;SDS011;4156;50.908;6.974;2022-10-31T01:11:00;6.63;;;4.83;;
8230;SDS011;4156;50.908;6.974;2022-10-31T01:13:36;15.27;;;5.47;;
8230;SDS011;4156;50.908;6.974;2022-10-31T01:16:03;11.00;;;4.97;;
8230;SDS011;4156;50.908;6.974;2022-10-31T01:18:30;9.37;;;5.40;;
8230;SDS011;4156;50.908;6.974;2022-10-31T01:23:32;6.40;;;4.70;;
8230;SDS011;4156;50.908;6.974;2022-10-31T01:26:06;10.70;;;6.30;;
8230;SDS011;4156;50.908;6.974;2022-10-31T01:28:32;8.47;;;5.07;;
8230;SDS011;4156;50.908;6.974;2022-10-31T01:31:02;8.73;;;5.00;;
8230;SDS011;4156;50.908;6.974;2022-10-31T01:33:32;8.20;;;4.87;;
8230;SDS011;4156;50.908;6.974;2022-10-31T01:35:58;8.70;;;4.87;;
8230;SDS011;4156;50.908;6.974;2022-10-31T01:38:24;7.70;;;4.93;;
8230;SDS011;4156;50.908;6.974;2022-10-31T01:40:49;7.93;;;4.50;;
8230;SDS011;4156;50.908;6.974;2022-10-31T01:43:15;9.27;;;4.93;;
8230;SDS011;4156;50.908;6.974;2022-10-31T01:45:41;6.73;;;5.17;;
8230;SDS011;4156;50.908;6.974;2022-10-31T01:48:12;8.17;;;4.20;;
8230;SDS011;4156;50.908;6.974;2022-10-31T01:50:40;9.80;;;6.60;;
8230;SDS011;4156;50.908;6.974;2022-10-31T01:53:07;10.10;;;5.40;;
8230;SDS011;4156;50.908;6.974;2022-10-31T01:55:34;8.13;;;4.80;;
8230;SDS011;4156;50.908;6.974;2022-10-31T01:58:09;10.93;;;4.80;;
8230;SDS011;4156;50.908;6.974;2022-10-31T02:00:38;7.50;;;4.67;;
8230;SDS011;4156;50.908;6.974;2022-10-31T02:03:06;7.83;;;4.77;;
8230;SDS011;4156;50.908;6.974;2022-10-31T02:05:32;7.33;;;4.87;;
8230;SDS011;4156;50.908;6.974;2022-10-31T02:07:59;12.00;;;5.30;;
8230;SDS011;4156;50.908;6.974;2022-10-31T02:10:32;8.60;;;5.23;;
8230;SDS011;4156;50.908;6.974;2022-10-31T02:13:01;7.13;;;4.77;;
8230;SDS011;4156;50.908;6.974;2022-10-31T02:15:29;7.87;;;4.80;;
8230;SDS011;4156;50.908;6.974;2022-10-31T02:17:56;7.87;;;5.00;;
8230;SDS011;4156;50.908;6.974;2022-10-31T02:20:23;10.93;;;4.70;;
8230;SDS011;4156;50.908;6.974;2022-10-31T02:25:53;7.13;;;4.57;;
8230;SDS011;4156;50.908;6.974;2022-10-31T02:34:19;9.27;;;5.10;;
8230;SDS011;4156;50.908;6.974;2022-10-31T02:36:52;7.27;;;4.80;;
8230;SDS011;4156;50.908;6.974;2022-10-31T02:39:48;7.40;;;4.27;;
8230;SDS011;4156;50.908;6.974;2022-10-31T02:42:32;6.23;;;4.70;;
8230;SDS011;4156;50.908;6.974;2022-10-31T02:45:07;9.87;;;4.90;;
8230;SDS011;4156;50.908;6.974;2022-10-31T02:47:33;8.80;;;5.37;;
8230;SDS011;4156;50.908;6.974;2022-10-31T02:50:18;8.07;;;5.40;;
8230;SDS011;4156;50.908;6.974;2022-10-31T02:52:51;8.97;;;4.57;;
8230;SDS011;4156;50.908;6.974;2022-10-31T02:57:53;10.50;;;4.67;;
8230;SDS011;4156;50.908;6.974;2022-10-31T03:03:14;11.10;;;4.70;;
8230;SDS011;4156;50.908;6.974;2022-10-31T03:05:57;7.50;;;4.90;;
8230;SDS011;4156;50.908;6.974;2022-10-31T03:08:41;7.43;;;4.20;;
8230;SDS011;4156;50.908;6.974;2022-10-31T03:11:20;6.27;;;4.50;;
8230;SDS011;4156;50.908;6.974;2022-10-31T03:13:55;7.40;;;5.13;;
8230;SDS011;4156;50.908;6.974;2022-10-31T03:16:50;8.47;;;4.37;;
8230;SDS011;4156;50.908;6.974;2022-10-31T03:19:26;10.93;;;4.67;;
8230;SDS011;4156;50.908;6.974;2022-10-31T03:24:48;7.00;;;4.53;;
8230;SDS011;4156;50.908;6.974;2022-10-31T03:27:18;6.77;;;4.87;;
8230;SDS011;4156;50.908;6.974;2022-10-31T03:29:49;8.93;;;4.40;;
8230;SDS011;4156;50.908;6.974;2022-10-31T03:32:22;9.47;;;4.57;;
8230;SDS011;4156;50.908;6.974;2022-10-31T03:34:58;7.50;;;4.60;;
8230;SDS011;4156;50.908;6.974;2022-10-31T03:37:27;6.30;;;4.20;;
8230;SDS011;4156;50.908;6.974;2022-10-31T03:39:54;8.37;;;4.83;;
8230;SDS011;4156;50.908;6.974;2022-10-31T03:42:24;7.70;;;4.83;;
8230;SDS011;4156;50.908;6.974;2022-10-31T03:45:24;8.30;;;4.77;;
8230;SDS011;4156;50.908;6.974;2022-10-31T03:47:45;6.00;;;4.00;;
8230;SDS011;4156;50.908;6.974;2022-10-31T03:50:12;9.60;;;4.60;;
8230;SDS011;4156;50.908;6.974;2022-10-31T03:52:50;7.93;;;4.43;;
8230;SDS011;4156;50.908;6.974;2022-10-31T03:55:25;8.33;;;4.27;;
8230;SDS011;4156;50.908;6.974;2022-10-31T03:58:03;9.57;;;4.70;;
8230;SDS011;4156;50.908;6.974;2022-10-31T04:00:33;7.33;;;4.90;;
8230;SDS011;4156;50.908;6.974;2022-10-31T04:05:34;8.30;;;4.70;;
8230;SDS011;4156;50.908;6.974;2022-10-31T04:08:02;8.87;;;4.07;;
8230;SDS011;4156;50.908;6.974;2022-10-31T04:10:32;7.33;;;4.63;;
8230;SDS011;4156;50.908;6.974;2022-10-31T04:13:07;11.90;;;4.90;;
8230;SDS011;4156;50.908;6.974;2022-10-31T04:15:35;8.67;;;4.80;;
8230;SDS011;4156;50.908;6.974;2022-10-31T04:18:02;8.17;;;4.67;;
8230;SDS011;4156;50.908;6.974;2022-10-31T04:20:37;8.80;;;4.60;;
8230;SDS011;4156;50.908;6.974;2022-10-31T04:23:04;9.23;;;4.90;;
8230;SDS011;4156;50.908;6.974;2022-10-31T04:25:36;9.30;;;4.97;;
8230;SDS011;4156;50.908;6.974;2022-10-31T04:28:01;8.00;;;4.93;;
8230;SDS011;4156;50.908;6.974;2022-10-31T04:30:27;7.80;;;5.03;;
8230;SDS011;4156;50.908;6.974;2022-10-31T04:32:52;10.07;;;4.80;;
8230;SDS011;4156;50.908;6.974;2022-10-31T04:35:18;6.83;;;4.53;;
8230;SDS011;4156;50.908;6.974;2022-10-31T04:37:43;7.70;;;4.70;;
8230;SDS011;4156;50.908;6.974;2022-10-31T04:40:09;9.77;;;4.80;;
8230;SDS011;4156;50.908;6.974;2022-10-31T04:42:35;9.93;;;4.83;;
8230;SDS011;4156;50.908;6.974;2022-10-31T04:45:00;8.80;;;4.67;;
8230;SDS011;4156;50.908;6.974;2022-10-31T04:47:26;5.83;;;4.20;;
8230;SDS011;4156;50.908;6.974;2022-10-31T04:49:51;8.03;;;4.07;;
8230;SDS011;4156;50.908;6.974;2022-10-31T04:52:17;6.77;;;4.90;;
8230;SDS011;4156;50.908;6.974;2022-10-31T04:54:42;9.30;;;5.37;;
8230;SDS011;4156;50.908;6.974;2022-10-31T04:57:08;12.03;;;4.80;;
8230;SDS011;4156;50.908;6.974;2022-10-31T04:59:33;8.57;;;5.17;;
8230;SDS011;4156;50.908;6.974;2022-10-31T05:01:59;6.50;;;4.60;;
8230;SDS011;4156;50.908;6.974;2022-10-31T05:04:24;8.57;;;5.03;;
8230;SDS011;4156;50.908;6.974;2022-10-31T05:06:50;8.13;;;4.30;;
8230;SDS011;4156;50.908;6.974;2022-10-31T05:09:15;8.80;;;4.80;;
8230;SDS011;4156;50.908;6.974;2022-10-31T05:11:41;9.77;;;5.20;;
8230;SDS011;4156;50.908;6.974;2022-10-31T05:14:06;16.90;;;5.10;;
8230;SDS011;4156;50.908;6.974;2022-10-31T05:16:32;5.70;;;4.40;;
8230;SDS011;4156;50.908;6.974;2022-10-31T05:18:58;8.03;;;5.07;;
8230;SDS011;4156;50.908;6.974;2022-10-31T05:21:23;7.00;;;4.43;;
8230;SDS011;4156;50.908;6.974;2022-10-31T05:23:49;7.90;;;4.50;;
8230;SDS011;4156;50.908;6.974;2022-10-31T05:26:14;10.60;;;4.73;;
8230;SDS011;4156;50.908;6.974;2022-10-31T05:28:40;8.93;;;5.00;;
8230;SDS011;4156;50.908;6.974;2022-10-31T05:31:05;6.97;;;4.70;;
8230;SDS011;4156;50.908;6.974;2022-10-31T05:33:31;11.97;;;4.93;;
8230;SDS011;4156;50.908;6.974;2022-10-31T05:35:56;9.03;;;4.77;;
8230;SDS011;4156;50.908;6.974;2022-10-31T05:38:22;7.97;;;4.70;;
8230;SDS011;4156;50.908;6.974;2022-10-31T05:40:47;8.00;;;4.90;;
8230;SDS011;4156;50.908;6.974;2022-10-31T05:43:13;12.80;;;5.40;;
8230;SDS011;4156;50.908;6.974;2022-10-31T05:45:38;10.67;;;4.60;;
8230;SDS011;4156;50.908;6.974;2022-10-31T05:48:04;7.80;;;4.60;;
8230;SDS011;4156;50.908;6.974;2022-10-31T05:50:30;7.93;;;4.30;;
8230;SDS011;4156;50.908;6.974;2022-10-31T05:52:57;8.57;;;4.73;;
8230;SDS011;4156;50.908;6.974;2022-10-31T05:55:23;11.47;;;5.23;;
8230;SDS011;4156;50.908;6.974;2022-10-31T05:57:50;12.80;;;6.07;;
8230;SDS011;4156;50.908;6.974;2022-10-31T06:00:17;7.27;;;4.97;;
8230;SDS011;4156;50.908;6.974;2022-10-31T06:02:43;8.33;;;4.30;;
8230;SDS011;4156;50.908;6.974;2022-10-31T06:05:09;8.77;;;4.90;;
8230;SDS011;4156;50.908;6.974;2022-10-31T06:07:34;8.13;;;5.00;;
8230;SDS011;4156;50.908;6.974;2022-10-31T06:10:00;8.20;;;4.80;;
8230;SDS011;4156;50.908;6.974;2022-10-31T06:12:27;8.27;;;5.03;;
8230;SDS011;4156;50.908;6.974;2022-10-31T06:14:53;9.50;;;5.13;;
8230;SDS011;4156;50.908;6.974;2022-10-31T06:17:19;7.03;;;4.47;;
8230;SDS011;4156;50.908;6.974;2022-10-31T06:19:44;10.23;;;4.53;;
8230;SDS011;4156;50.908;6.974;2022-10-31T06:22:10;10.53;;;5.00;;
8230;SDS011;4156;50.908;6.974;2022-10-31T06:24:38;7.03;;;4.13;;
8230;SDS011;4156;50.908;6.974;2022-10-31T06:27:04;8.57;;;4.30;;
8230;SDS011;4156;50.908;6.974;2022-10-31T06:29:30;5.97;;;3.90;;
8230;SDS011;4156;50.908;6.974;2022-10-31T06:31:56;10.53;;;5.00;;
8230;SDS011;4156;50.908;6.974;2022-10-31T06:34:21;6.00;;;4.50;;
8230;SDS011;4156;50.908;6.974;2022-10-31T06:36:47;8.73;;;4.23;;
8230;SDS011;4156;50.908;6.974;2022-10-31T06:39:13;9.67;;;4.37;;
8230;SDS011;4156;50.908;6.974;2022-10-31T06:41:39;9.10;;;4.67;;
8230;SDS011;4156;50.908;6.974;2022-10-31T06:44:06;8.97;;;4.87;;
8230;SDS011;4156;50.908;6.974;2022-10-31T06:46:32;9.13;;;5.20;;
8230;SDS011;4156;50.908;6.974;2022-10-31T06:48:58;7.83;;;4.93;;
8230;SDS011;4156;50.908;6.974;2022-10-31T06:51:24;9.90;;;4.60;;
8230;SDS011;4156;50.908;6.974;2022-10-31T06:53:50;8.90;;;5.00;;
8230;SDS011;4156;50.908;6.974;2022-10-31T06:56:15;9.50;;;4.30;;
8230;SDS011;4156;50.908;6.974;2022-10-31T06:58:41;9.37;;;4.77;;
8230;SDS011;4156;50.908;6.974;2022-10-31T07:01:06;8.33;;;5.37;;
8230;SDS011;4156;50.908;6.974;2022-10-31T07:03:32;34.50;;;7.47;;
8230;SDS011;4156;50.908;6.974;2022-10-31T07:05:57;6.73;;;5.10;;
8230;SDS011;4156;50.908;6.974;2022-10-31T07:08:23;12.73;;;4.53;;
8230;SDS011;4156;50.908;6.974;2022-10-31T07:10:53;8.63;;;4.80;;
8230;SDS011;4156;50.908;6.974;2022-10-31T07:13:21;9.63;;;4.80;;
8230;SDS011;4156;50.908;6.974;2022-10-31T07:15:50;7.53;;;4.73;;
8230;SDS011;4156;50.908;6.974;2022-10-31T07:18:17;7.53;;;5.37;;
8230;SDS011;4156;50.908;6.974;2022-10-31T07:20:42;10.50;;;5.00;;
8230;SDS011;4156;50.908;6.974;2022-10-31T07:23:11;6.87;;;4.77;;
8230;SDS011;4156;50.908;6.974;2022-10-31T07:25:37;8.40;;;4.90;;
8230;SDS011;4156;50.908;6.974;2022-10-31T07:28:06;11.30;;;5.27;;
8230;SDS011;4156;50.908;6.974;2022-10-31T07:30:32;7.47;;;5.10;;
8230;SDS011;4156;50.908;6.974;2022-10-31T07:32:58;14.60;;;4.37;;
8230;SDS011;4156;50.908;6.974;2022-10-31T07:35:24;5.73;;;4.30;;
8230;SDS011;4156;50.908;6.974;2022-10-31T07:37:51;14.97;;;7.53;;
8230;SDS011;4156;50.908;6.974;2022-10-31T07:40:17;9.63;;;5.60;;
8230;SDS011;4156;50.908;6.974;2022-10-31T07:42:44;11.57;;;5.17;;
8230;SDS011;4156;50.908;6.974;2022-10-31T07:45:13;10.25;;;5.82;;
8230;SDS011;4156;50.908;6.974;2022-10-31T07:50:15;6.70;;;4.80;;
8230;SDS011;4156;50.908;6.974;2022-10-31T07:52:42;7.90;;;5.13;;
8230;SDS011;4156;50.908;6.974;2022-10-31T07:55:09;6.73;;;5.03;;
8230;SDS011;4156;50.908;6.974;2022-10-31T07:57:35;6.17;;;4.67;;
8230;SDS011;4156;50.908;6.974;2022-10-31T08:00:08;10.33;;;5.00;;
8230;SDS011;4156;50.908;6.974;2022-10-31T08:02:34;8.07;;;4.70;;
8230;SDS011;4156;50.908;6.974;2022-10-31T08:05:00;9.73;;;4.93;;
8230;SDS011;4156;50.908;6.974;2022-10-31T08:07:27;10.87;;;5.03;;
8230;SDS011;4156;50.908;6.974;2022-10-31T08:09:53;9.77;;;5.23;;
8230;SDS011;4156;50.908;6.974;2022-10-31T08:12:19;9.03;;;4.87;;
8230;SDS011;4156;50.908;6.974;2022-10-31T08:14:45;9.07;;;4.90;;
8230;SDS011;4156;50.908;6.974;2022-10-31T08:17:11;6.77;;;4.77;;
8230;SDS011;4156;50.908;6.974;2022-10-31T08:19:36;7.50;;;5.17;;
8230;SDS011;4156;50.908;6.974;2022-10-31T08:22:02;7.67;;;5.53;;
8230;SDS011;4156;50.908;6.974;2022-10-31T08:24:28;12.83;;;5.93;;
8230;SDS011;4156;50.908;6.974;2022-10-31T08:26:53;13.13;;;6.83;;
8230;SDS011;4156;50.908;6.974;2022-10-31T08:29:19;10.17;;;5.03;;
8230;SDS011;4156;50.908;6.974;2022-10-31T08:31:44;10.90;;;5.50;;
8230;SDS011;4156;50.908;6.974;2022-10-31T08:34:10;12.87;;;5.33;;
8230;SDS011;4156;50.908;6.974;2022-10-31T08:36:35;8.70;;;5.37;;
8230;SDS011;4156;50.908;6.974;2022-10-31T08:39:01;7.50;;;4.87;;
8230;SDS011;4156;50.908;6.974;2022-10-31T08:41:26;11.03;;;4.40;;
8230;SDS011;4156;50.908;6.974;2022-10-31T08:43:52;7.40;;;4.97;;
8230;SDS011;4156;50.908;6.974;2022-10-31T08:46:17;8.83;;;4.83;;
8230;SDS011;4156;50.908;6.974;2022-10-31T08:48:43;8.63;;;5.33;;
8230;SDS011;4156;50.908;6.974;2022-10-31T08:51:09;7.10;;;4.67;;
8230;SDS011;4156;50.908;6.974;2022-10-31T08:53:36;10.63;;;4.53;;
8230;SDS011;4156;50.908;6.974;2022-10-31T08:56:02;10.87;;;5.40;;
8230;SDS011;4156;50.908;6.974;2022-10-31T08:58:27;9.60;;;5.03;;
8230;SDS011;4156;50.908;6.974;2022-10-31T09:00:53;7.87;;;5.10;;
8230;SDS011;4156;50.908;6.974;2022-10-31T09:03:22;8.73;;;4.90;;
8230;SDS011;4156;50.908;6.974;2022-10-31T09:05:50;7.77;;;5.20;;
8230;SDS011;4156;50.908;6.974;2022-10-31T09:08:19;10.57;;;5.10;;
8230;SDS011;4156;50.908;6.974;2022-10-31T09:10:44;8.83;;;4.80;;
8230;SDS011;4156;50.908;6.974;2022-10-31T09:13:11;11.57;;;5.43;;
8230;SDS011;4156;50.908;6.974;2022-10-31T09:15:39;8.03;;;5.13;;
8230;SDS011;4156;50.908;6.974;2022-10-31T09:18:06;9.10;;;5.20;;
8230;SDS011;4156;50.908;6.974;2022-10-31T09:20:33;6.40;;;4.43;;
8230;SDS011;4156;50.908;6.974;2022-10-31T09:23:00;7.73;;;5.23;;
8230;SDS011;4156;50.908;6.974;2022-10-31T09:25:28;8.50;;;4.73;;
8230;SDS011;4156;50.908;6.974;2022-10-31T09:27:57;7.73;;;4.63;;
8230;SDS011;4156;50.908;6.974;2022-10-31T09:30:24;13.20;;;5.20;;
8230;SDS011;4156;50.908;6.974;2022-10-31T09:32:54;8.37;;;5.67;;
8230;SDS011;4156;50.908;6.974;2022-10-31T09:35:27;6.57;;;4.47;;
8230;SDS011;4156;50.908;6.974;2022-10-31T09:37:57;7.00;;;4.30;;
8230;SDS011;4156;50.908;6.974;2022-10-31T09:40:36;10.33;;;5.67;;
8230;SDS011;4156;50.908;6.974;2022-10-31T09:43:13;9.87;;;5.70;;
8230;SDS011;4156;50.908;6.974;2022-10-31T09:48:46;8.60;;;4.70;;
8230;SDS011;4156;50.908;6.974;2022-10-31T09:51:34;12.50;;;5.43;;
8230;SDS011;4156;50.908;6.974;2022-10-31T09:56:42;8.10;;;4.37;;
8230;SDS011;4156;50.908;6.974;2022-10-31T09:59:11;7.37;;;4.97;;
8230;SDS011;4156;50.908;6.974;2022-10-31T10:01:51;7.63;;;4.90;;
8230;SDS011;4156;50.908;6.974;2022-10-31T10:07:00;7.17;;;4.47;;
8230;SDS011;4156;50.908;6.974;2022-10-31T10:09:32;10.33;;;4.67;;
8230;SDS011;4156;50.908;6.974;2022-10-31T10:12:01;17.03;;;5.13;;
8230;SDS011;4156;50.908;6.974;2022-10-31T10:17:11;7.13;;;4.40;;
8230;SDS011;4156;50.908;6.974;2022-10-31T10:19:46;6.97;;;4.90;;
8230;SDS011;4156;50.908;6.974;2022-10-31T10:25:23;6.57;;;4.53;;
8230;SDS011;4156;50.908;6.974;2022-10-31T10:30:47;8.23;;;4.57;;
8230;SDS011;4156;50.908;6.974;2022-10-31T10:33:28;8.60;;;4.70;;
8230;SDS011;4156;50.908;6.974;2022-10-31T10:35:59;8.43;;;4.20;;
8230;SDS011;4156;50.908;6.974;2022-10-31T10:38:36;9.90;;;4.27;;
8230;SDS011;4156;50.908;6.974;2022-10-31T10:41:05;6.77;;;4.50;;
8230;SDS011;4156;50.908;6.974;2022-10-31T10:43:37;6.67;;;4.33;;
8230;SDS011;4156;50.908;6.974;2022-10-31T10:46:24;8.33;;;4.10;;
8230;SDS011;4156;50.908;6.974;2022-10-31T10:52:10;5.80;;;3.97;;
8230;SDS011;4156;50.908;6.974;2022-10-31T10:58:01;6.37;;;3.70;;
8230;SDS011;4156;50.908;6.974;2022-10-31T11:00:30;7.27;;;4.33;;
8230;SDS011;4156;50.908;6.974;2022-10-31T11:03:00;12.63;;;4.40;;
8230;SDS011;4156;50.908;6.974;2022-10-31T11:05:39;8.87;;;3.47;;
8230;SDS011;4156;50.908;6.974;2022-10-31T11:08:10;9.40;;;4.07;;
8230;SDS011;4156;50.908;6.974;2022-10-31T11:10:36;6.93;;;3.80;;
8230;SDS011;4156;50.908;6.974;2022-10-31T11:15:31;6.00;;;3.60;;
8230;SDS011;4156;50.908;6.974;2022-10-31T11:18:01;8.23;;;3.97;;
8230;SDS011;4156;50.908;6.974;2022-10-31T11:23:18;6.67;;;3.53;;
8230;SDS011;4156;50.908;6.974;2022-10-31T11:26:04;7.23;;;3.37;;
8230;SDS011;4156;50.908;6.974;2022-10-31T11:28:31;8.93;;;3.83;;
8230;SDS011;4156;50.908;6.974;2022-10-31T11:31:00;5.57;;;3.63;;
8230;SDS011;4156;50.908;6.974;2022-10-31T11:33:32;4.40;;;3.47;;
8230;SDS011;4156;50.908;6.974;2022-10-31T11:36:01;11.20;;;5.27;;
8230;SDS011;4156;50.908;6.974;2022-10-31T11:38:31;8.20;;;3.17;;
8230;SDS011;4156;50.908;6.974;2022-10-31T11:41:05;9.10;;;3.67;;
8230;SDS011;4156;50.908;6.974;2022-10-31T11:43:38;5.10;;;3.63;;
8230;SDS011;4156;50.908;6.974;2022-10-31T11:46:08;4.90;;;3.37;;
8230;SDS011;4156;50.908;6.974;2022-10-31T11:48:36;5.57;;;3.70;;
8230;SDS011;4156;50.908;6.974;2022-10-31T11:51:02;7.53;;;3.90;;
8230;SDS011;4156;50.908;6.974;2022-10-31T11:53:31;5.37;;;3.40;;
8230;SDS011;4156;50.908;6.974;2022-10-31T11:58:30;7.30;;;3.57;;
8230;SDS011;4156;50.908;6.974;2022-10-31T12:00:56;7.57;;;4.37;;
8230;SDS011;4156;50.908;6.974;2022-10-31T12:08:25;10.30;;;4.30;;
8230;SDS011;4156;50.908;6.974;2022-10-31T12:11:25;5.23;;;3.30;;
8230;SDS011;4156;50.908;6.974;2022-10-31T12:19:12;7.03;;;3.40;;
8230;SDS011;4156;50.908;6.974;2022-10-31T12:21:51;5.83;;;3.73;;
8230;SDS011;4156;50.908;6.974;2022-10-31T12:30:45;5.20;;;3.10;;
8230;SDS011;4156;50.908;6.974;2022-10-31T12:38:32;7.40;;;3.53;;
8230;SDS011;4156;50.908;6.974;2022-10-31T12:41:09;8.17;;;4.10;;
8230;SDS011;4156;50.908;6.974;2022-10-31T12:43:48;7.40;;;3.23;;
8230;SDS011;4156;50.908;6.974;2022-10-31T12:57:52;8.57;;;3.37;;
8230;SDS011;4156;50.908;6.974;2022-10-31T13:00:23;4.70;;;2.83;;
8230;SDS011;4156;50.908;6.974;2022-10-31T13:08:04;6.60;;;3.50;;
8230;SDS011;4156;50.908;6.974;2022-10-31T13:13:26;6.30;;;3.20;;
8230;SDS011;4156;50.908;6.974;2022-10-31T13:15:58;6.80;;;3.27;;
8230;SDS011;4156;50.908;6.974;2022-10-31T13:21:18;9.37;;;3.57;;
8230;SDS011;4156;50.908;6.974;2022-10-31T13:23:48;6.53;;;3.37;;
8230;SDS011;4156;50.908;6.974;2022-10-31T13:26:36;7.47;;;4.30;;
8230;SDS011;4156;50.908;6.974;2022-10-31T13:29:17;5.43;;;2.83;;
8230;SDS011;4156;50.908;6.974;2022-10-31T13:31:49;6.07;;;3.30;;
8230;SDS011;4156;50.908;6.974;2022-10-31T13:34:20;6.20;;;3.67;;
8230;SDS011;4156;50.908;6.974;2022-10-31T13:37:12;9.47;;;4.43;;
8230;SDS011;4156;50.908;6.974;2022-10-31T13:42:49;6.33;;;3.10;;
8230;SDS011;4156;50.908;6.974;2022-10-31T13:45:21;8.57;;;3.73;;
8230;SDS011;4156;50.908;6.974;2022-10-31T13:47:59;6.47;;;3.20;;
8230;SDS011;4156;50.908;6.974;2022-10-31T13:50:26;5.33;;;3.43;;
8230;SDS011;4156;50.908;6.974;2022-10-31T13:58:34;5.97;;;3.33;;
8230;SDS011;4156;50.908;6.974;2022-10-31T14:03:35;4.20;;;3.00;;
8230;SDS011;4156;50.908;6.974;2022-10-31T14:06:03;6.17;;;3.13;;
8230;SDS011;4156;50.908;6.974;2022-10-31T14:08:29;7.87;;;3.53;;
8230;SDS011;4156;50.908;6.974;2022-10-31T14:11:00;7.97;;;3.53;;
8230;SDS011;4156;50.908;6.974;2022-10-31T14:16:03;6.57;;;3.70;;
8230;SDS011;4156;50.908;6.974;2022-10-31T14:18:38;8.77;;;3.80;;
8230;SDS011;4156;50.908;6.974;2022-10-31T14:21:14;8.10;;;3.60;;
8230;SDS011;4156;50.908;6.974;2022-10-31T14:23:49;4.40;;;2.87;;
8230;SDS011;4156;50.908;6.974;2022-10-31T14:28:45;7.17;;;3.20;;
8230;SDS011;4156;50.908;6.974;2022-10-31T14:39:47;6.13;;;3.57;;
8230;SDS011;4156;50.908;6.974;2022-10-31T14:42:31;5.57;;;3.53;;
8230;SDS011;4156;50.908;6.974;2022-10-31T14:45:12;7.77;;;3.40;;
8230;SDS011;4156;50.908;6.974;2022-10-31T14:50:56;8.97;;;3.73;;
8230;SDS011;4156;50.908;6.974;2022-10-31T14:53:25;6.20;;;2.90;;
8230;SDS011;4156;50.908;6.974;2022-10-31T14:55:54;6.93;;;3.60;;
8230;SDS011;4156;50.908;6.974;2022-10-31T14:58:22;7.83;;;3.33;;
8230;SDS011;4156;50.908;6.974;2022-10-31T15:00:58;4.93;;;3.10;;
8230;SDS011;4156;50.908;6.974;2022-10-31T15:03:26;5.70;;;3.53;;
8230;SDS011;4156;50.908;6.974;2022-10-31T15:05:59;4.63;;;3.23;;
8230;SDS011;4156;50.908;6.974;2022-10-31T15:08:32;8.10;;;3.87;;
8230;SDS011;4156;50.908;6.974;2022-10-31T15:11:08;6.07;;;3.20;;
8230;SDS011;4156;50.908;6.974;2022-10-31T15:13:40;8.00;;;3.27;;
8230;SDS011;4156;50.908;6.974;2022-10-31T15:16:27;9.07;;;3.20;;
8230;SDS011;4156;50.908;6.974;2022-10-31T15:19:03;7.30;;;3.27;;
8230;SDS011;4156;50.908;6.974;2022-10-31T15:21:32;5.17;;;2.87;;
8230;SDS011;4156;50.908;6.974;2022-10-31T15:24:00;5.10;;;3.20;;
8230;SDS011;4156;50.908;6.974;2022-10-31T15:26:35;7.97;;;3.20;;
8230;SDS011;4156;50.908;6.974;2022-10-31T15:29:10;5.13;;;2.63;;
8230;SDS011;4156;50.908;6.974;2022-10-31T15:31:38;6.43;;;3.43;;
8230;SDS011;4156;50.908;6.974;2022-10-31T15:34:05;7.13;;;2.93;;
8230;SDS011;4156;50.908;6.974;2022-10-31T15:36:41;5.63;;;3.20;;
8230;SDS011;4156;50.908;6.974;2022-10-31T15:39:09;4.93;;;2.93;;
8230;SDS011;4156;50.908;6.974;2022-10-31T15:41:51;6.90;;;2.80;;
8230;SDS011;4156;50.908;6.974;2022-10-31T15:44:23;5.90;;;3.10;;
8230;SDS011;4156;50.908;6.974;2022-10-31T15:47:04;4.23;;;2.83;;
8230;SDS011;4156;50.908;6.974;2022-10-31T15:49:41;5.07;;;2.63;;
8230;SDS011;4156;50.908;6.974;2022-10-31T15:52:17;7.93;;;3.17;;
8230;SDS011;4156;50.908;6.974;2022-10-31T15:54:53;6.67;;;3.00;;
8230;SDS011;4156;50.908;6.974;2022-10-31T15:57:23;6.50;;;3.20;;
8230;SDS011;4156;50.908;6.974;2022-10-31T15:59:51;6.63;;;3.03;;
8230;SDS011;4156;50.908;6.974;2022-10-31T16:02:19;5.03;;;3.00;;
8230;SDS011;4156;50.908;6.974;2022-10-31T16:04:48;5.60;;;2.97;;
8230;SDS011;4156;50.908;6.974;2022-10-31T16:07:16;6.10;;;2.80;;
8230;SDS011;4156;50.908;6.974;2022-10-31T16:09:56;6.37;;;3.17;;
8230;SDS011;4156;50.908;6.974;2022-10-31T16:12:33;7.37;;;2.80;;
8230;SDS011;4156;50.908;6.974;2022-10-31T16:15:01;8.77;;;2.80;;
8230;SDS011;4156;50.908;6.974;2022-10-31T16:17:28;6.40;;;2.90;;
8230;SDS011;4156;50.908;6.974;2022-10-31T16:19:58;4.90;;;2.93;;
8230;SDS011;4156;50.908;6.974;2022-10-31T16:22:29;6.40;;;3.40;;
8230;SDS011;4156;50.908;6.974;2022-10-31T16:27:35;5.47;;;3.33;;
8230;SDS011;4156;50.908;6.974;2022-10-31T16:30:03;4.17;;;3.03;;
8230;SDS011;4156;50.908;6.974;2022-10-31T16:33:27;7.00;;;3.77;;
8230;SDS011;4156;50.908;6.974;2022-10-31T16:35:56;6.60;;;2.97;;
8230;SDS011;4156;50.908;6.974;2022-10-31T16:38:22;5.57;;;3.40;;
8230;SDS011;4156;50.908;6.974;2022-10-31T16:40:48;6.50;;;3.17;;
8230;SDS011;4156;50.908;6.974;2022-10-31T16:43:15;7.13;;;3.30;;
8230;SDS011;4156;50.908;6.974;2022-10-31T16:45:43;5.87;;;3.23;;
8230;SDS011;4156;50.908;6.974;2022-10-31T16:48:14;6.50;;;3.23;;
8230;SDS011;4156;50.908;6.974;2022-10-31T16:50:42;9.53;;;3.50;;
8230;SDS011;4156;50.908;6.974;2022-10-31T16:53:08;9.43;;;3.70;;
8230;SDS011;4156;50.908;6.974;2022-10-31T16:55:57;8.53;;;3.63;;
8230;SDS011;4156;50.908;6.974;2022-10-31T16:58:28;7.40;;;3.60;;
8230;SDS011;4156;50.908;6.974;2022-10-31T17:00:58;4.70;;;3.20;;
8230;SDS011;4156;50.908;6.974;2022-10-31T17:03:24;6.13;;;3.43;;
8230;SDS011;4156;50.908;6.974;2022-10-31T17:05:50;6.30;;;3.67;;
8230;SDS011;4156;50.908;6.974;2022-10-31T17:08:16;6.27;;;3.43;;
8230;SDS011;4156;50.908;6.974;2022-10-31T17:10:42;4.77;;;3.23;;
8230;SDS011;4156;50.908;6.974;2022-10-31T17:13:13;6.53;;;3.17;;
8230;SDS011;4156;50.908;6.974;2022-10-31T17:15:44;5.60;;;3.40;;
8230;SDS011;4156;50.908;6.974;2022-10-31T17:18:12;7.10;;;3.53;;
8230;SDS011;4156;50.908;6.974;2022-10-31T17:20:39;7.97;;;3.77;;
8230;SDS011;4156;50.908;6.974;2022-10-31T17:23:05;5.93;;;3.70;;
8230;SDS011;4156;50.908;6.974;2022-10-31T17:25:31;6.33;;;3.63;;
8230;SDS011;4156;50.908;6.974;2022-10-31T17:27:57;17.77;;;4.80;;
8230;SDS011;4156;50.908;6.974;2022-10-31T17:30:23;8.33;;;3.63;;
8230;SDS011;4156;50.908;6.974;2022-10-31T17:32:49;9.93;;;3.87;;
8230;SDS011;4156;50.908;6.974;2022-10-31T17:35:16;5.53;;;3.50;;
8230;SDS011;4156;50.908;6.974;2022-10-31T17:37:43;5.07;;;3.27;;